Time;durP1;ratioP1;P1;durP2;ratioP2;P2;SDS_P1;SDS_P2;PMS_P1;PMS_P2;Temp;Humidity;BMP_temperature;BMP_pressure;BME280_temperature;BME280_humidity;BME280_pressure;Samples;Min_cycle;Max_cycle;Signal;HPM_P1;HPM_P2
2022/08/07 00:01:46;;;;;;;6.60;4.30;;;;;;;;;;5101717;28;20083;-64
2022/08/07 00:04:13;;;;;;;7.35;4.68;;;;;;;;;;5100506;28;20048;-64
2022/08/07 00:06:40;;;;;;;6.00;4.90;;;;;;;;;;5103261;28;20069;-64
2022/08/07 00:09:08;;;;;;;5.95;4.50;;;;;;;;;;5077842;28;20059;-64
2022/08/07 00:11:35;;;;;;;5.82;4.60;;;;;;;;;;5094673;28;20128;-64
2022/08/07 00:14:03;;;;;;;9.02;5.22;;;;;;;;;;5099125;28;20518;-64
2022/08/07 00:16:31;;;;;;;6.25;4.93;;;;;;;;;;5104425;28;20052;-64
2022/08/07 00:18:58;;;;;;;6.85;5.05;;;;;;;;;;5100005;28;20048;-64
2022/08/07 00:21:25;;;;;;;6.38;4.82;;;;;;;;;;5090701;28;20040;-63
2022/08/07 00:23:52;;;;;;;7.45;4.85;;;;;;;;;;5103032;28;20047;-63
2022/08/07 00:26:20;;;;;;;5.95;4.45;;;;;;;;;;5105000;28;20530;-63
2022/08/07 00:28:47;;;;;;;6.93;5.10;;;;;;;;;;5099434;28;20081;-63
2022/08/07 00:31:15;;;;;;;7.15;4.72;;;;;;;;;;5103859;28;20047;-64
2022/08/07 00:33:43;;;;;;;7.35;4.57;;;;;;;;;;5097339;28;20058;-64
2022/08/07 00:36:10;;;;;;;7.25;5.32;;;;;;;;;;5098989;28;20048;-64
2022/08/07 00:38:38;;;;;;;6.20;4.93;;;;;;;;;;5104876;28;20044;-64
2022/08/07 00:41:06;;;;;;;7.40;5.30;;;;;;;;;;5082254;28;20075;-63
2022/08/07 00:43:33;;;;;;;6.97;4.75;;;;;;;;;;5104316;28;20050;-64
2022/08/07 00:46:00;;;;;;;6.25;5.43;;;;;;;;;;5105851;28;20044;-63
2022/08/07 00:48:29;;;;;;;7.25;4.75;;;;;;;;;;5105223;28;20642;-64
2022/08/07 00:50:56;;;;;;;6.90;4.95;;;;;;;;;;5107324;28;20043;-63
2022/08/07 00:53:24;;;;;;;10.73;4.82;;;;;;;;;;5100506;28;20071;-63
2022/08/07 00:55:51;;;;;;;8.00;4.80;;;;;;;;;;5103993;28;20387;-64
2022/08/07 00:58:20;;;;;;;5.93;4.72;;;;;;;;;;5104014;28;20043;-64
2022/08/07 01:00:47;;;;;;;6.88;4.60;;;;;;;;;;5105885;28;20043;-64
2022/08/07 01:03:15;;;;;;;6.70;5.03;;;;;;;;;;5105628;28;20077;-64
2022/08/07 01:05:45;;;;;;;9.45;5.10;;;;;;;;;;5103824;28;20140;-63
2022/08/07 01:08:12;;;;;;;7.57;5.10;;;;;;;;;;5103217;28;20435;-64
2022/08/07 01:10:41;;;;;;;7.43;4.82;;;;;;;;;;5100818;27;20035;-63
2022/08/07 01:13:09;;;;;;;8.65;4.95;;;;;;;;;;5103132;28;20615;-64
2022/08/07 01:15:37;;;;;;;8.18;5.72;;;;;;;;;;5095819;28;20048;-64
2022/08/07 01:18:05;;;;;;;7.30;5.60;;;;;;;;;;5103774;28;20048;-64
2022/08/07 01:20:34;;;;;;;8.02;5.68;;;;;;;;;;5102193;28;20048;-63
2022/08/07 01:23:03;;;;;;;7.60;5.03;;;;;;;;;;5097176;28;20097;-64
2022/08/07 01:25:30;;;;;;;6.05;5.03;;;;;;;;;;5101222;28;20131;-64
2022/08/07 01:27:58;;;;;;;6.63;5.40;;;;;;;;;;5104711;28;20114;-64
2022/08/07 01:30:26;;;;;;;6.93;5.93;;;;;;;;;;5101760;28;20105;-64
2022/08/07 01:32:53;;;;;;;7.28;5.88;;;;;;;;;;5097961;28;20126;-64
2022/08/07 01:35:21;;;;;;;6.80;5.35;;;;;;;;;;5100705;28;20048;-64
2022/08/07 01:37:48;;;;;;;8.02;5.10;;;;;;;;;;5103430;28;20086;-63
2022/08/07 01:40:20;;;;;;;6.65;4.68;;;;;;;;;;5098105;28;20059;-63
2022/08/07 01:42:47;;;;;;;7.22;5.20;;;;;;;;;;5101063;28;20050;-63
2022/08/07 01:45:14;;;;;;;10.52;5.55;;;;;;;;;;5098240;28;20060;-64
2022/08/07 01:47:42;;;;;;;6.63;4.93;;;;;;;;;;5102261;28;21022;-64
2022/08/07 01:50:10;;;;;;;8.15;5.63;;;;;;;;;;5103113;28;20486;-63
2022/08/07 01:52:37;;;;;;;7.47;5.43;;;;;;;;;;5097523;27;20043;-64
2022/08/07 01:55:05;;;;;;;8.25;5.00;;;;;;;;;;5084213;28;20146;-63
2022/08/07 01:57:37;;;;;;;5.68;4.70;;;;;;;;;;5103579;28;20047;-64
2022/08/07 02:00:10;;;;;;;6.25;5.10;;;;;;;;;;5102076;28;20809;-63
2022/08/07 02:02:40;;;;;;;6.78;5.00;;;;;;;;;;5098679;28;20047;-63
2022/08/07 02:05:09;;;;;;;7.60;5.00;;;;;;;;;;5084338;28;20104;-63
2022/08/07 02:07:40;;;;;;;7.13;4.85;;;;;;;;;;5099615;28;20105;-63
2022/08/07 02:10:09;;;;;;;8.38;5.20;;;;;;;;;;5101691;28;20494;-64
2022/08/07 02:12:38;;;;;;;6.03;5.22;;;;;;;;;;5092067;28;20659;-64
2022/08/07 02:15:07;;;;;;;7.03;5.28;;;;;;;;;;5100163;28;20113;-64
2022/08/07 02:17:35;;;;;;;7.95;5.47;;;;;;;;;;5083694;28;20063;-63
2022/08/07 02:20:04;;;;;;;7.70;5.30;;;;;;;;;;5102026;28;20048;-64
2022/08/07 02:22:31;;;;;;;6.60;4.93;;;;;;;;;;5102276;28;20060;-63
2022/08/07 02:25:00;;;;;;;7.32;5.05;;;;;;;;;;5100131;28;20059;-63
2022/08/07 02:27:28;;;;;;;6.20;5.00;;;;;;;;;;5101262;28;20055;-64
2022/08/07 02:29:58;;;;;;;7.75;5.43;;;;;;;;;;5083011;28;20079;-63
2022/08/07 02:32:26;;;;;;;7.05;4.93;;;;;;;;;;5102022;28;20415;-63
2022/08/07 02:34:54;;;;;;;8.30;5.65;;;;;;;;;;5099012;28;20122;-64
2022/08/07 02:37:21;;;;;;;8.98;5.55;;;;;;;;;;5103677;28;20044;-63
2022/08/07 02:39:49;;;;;;;6.53;5.18;;;;;;;;;;5100505;28;20051;-63
2022/08/07 02:42:17;;;;;;;9.30;5.97;;;;;;;;;;5103712;28;20047;-64
2022/08/07 02:44:46;;;;;;;7.18;5.75;;;;;;;;;;5081448;28;20135;-64
2022/08/07 02:47:16;;;;;;;10.85;5.95;;;;;;;;;;5102942;28;20047;-64
2022/08/07 02:49:44;;;;;;;8.18;6.03;;;;;;;;;;5103391;28;20052;-63
2022/08/07 02:52:14;;;;;;;7.95;5.80;;;;;;;;;;5099158;28;20568;-63
2022/08/07 02:54:42;;;;;;;9.18;6.35;;;;;;;;;;5101968;28;20047;-64
2022/08/07 02:57:13;;;;;;;9.43;6.47;;;;;;;;;;5080483;28;20055;-64
2022/08/07 02:59:44;;;;;;;9.32;6.78;;;;;;;;;;5084048;28;20051;-63
2022/08/07 03:02:12;;;;;;;8.18;5.95;;;;;;;;;;5080662;28;20052;-64
2022/08/07 03:04:41;;;;;;;9.20;6.72;;;;;;;;;;5104099;28;20051;-63
2022/08/07 03:07:08;;;;;;;9.52;6.85;;;;;;;;;;5098114;28;20044;-64
2022/08/07 03:09:36;;;;;;;10.60;5.55;;;;;;;;;;5081048;28;20055;-63
2022/08/07 03:12:04;;;;;;;7.78;5.78;;;;;;;;;;5101737;28;20039;-64
2022/08/07 03:14:31;;;;;;;7.88;6.10;;;;;;;;;;5101356;28;20054;-64
2022/08/07 03:16:59;;;;;;;8.35;6.32;;;;;;;;;;5103140;28;20568;-63
2022/08/07 03:19:26;;;;;;;9.40;6.28;;;;;;;;;;5100126;28;20073;-64
2022/08/07 03:21:56;;;;;;;8.52;6.18;;;;;;;;;;5098760;28;20047;-64
2022/08/07 03:24:23;;;;;;;9.32;6.57;;;;;;;;;;5098707;28;20081;-64
2022/08/07 03:26:51;;;;;;;8.38;6.80;;;;;;;;;;5094375;28;20486;-64
2022/08/07 03:29:19;;;;;;;12.02;7.15;;;;;;;;;;5100201;28;20039;-63
2022/08/07 03:31:47;;;;;;;11.30;7.47;;;;;;;;;;5077868;28;20101;-64
2022/08/07 03:34:18;;;;;;;9.38;7.30;;;;;;;;;;5100218;28;20371;-64
2022/08/07 03:36:46;;;;;;;8.38;6.28;;;;;;;;;;5095711;28;20603;-64
2022/08/07 03:39:16;;;;;;;11.20;7.10;;;;;;;;;;5100749;28;20133;-64
2022/08/07 03:41:43;;;;;;;10.70;7.28;;;;;;;;;;5096760;28;20055;-64
2022/08/07 03:44:12;;;;;;;13.45;8.60;;;;;;;;;;5102188;28;20443;-63
2022/08/07 03:46:40;;;;;;;13.10;8.38;;;;;;;;;;5094439;28;20051;-63
2022/08/07 03:49:09;;;;;;;9.13;7.07;;;;;;;;;;5104027;28;20083;-64
2022/08/07 03:51:36;;;;;;;11.85;8.00;;;;;;;;;;5104647;28;20537;-63
2022/08/07 03:54:04;;;;;;;8.98;6.85;;;;;;;;;;5102830;28;20055;-63
2022/08/07 03:56:35;;;;;;;11.02;8.05;;;;;;;;;;5100218;28;20146;-64
2022/08/07 03:59:04;;;;;;;10.02;8.23;;;;;;;;;;5097346;28;20058;-64
2022/08/07 04:01:32;;;;;;;13.50;7.50;;;;;;;;;;5099596;28;20138;-64
2022/08/07 04:04:00;;;;;;;12.88;8.25;;;;;;;;;;5100776;28;20131;-64
2022/08/07 04:06:27;;;;;;;9.52;7.50;;;;;;;;;;5101676;28;20152;-64
2022/08/07 04:08:54;;;;;;;10.00;8.25;;;;;;;;;;5100715;28;20718;-64
2022/08/07 04:11:22;;;;;;;10.57;7.50;;;;;;;;;;5098778;28;20059;-63
2022/08/07 04:13:51;;;;;;;10.95;7.57;;;;;;;;;;5100484;28;20043;-64
2022/08/07 04:16:18;;;;;;;12.05;7.53;;;;;;;;;;5107220;28;20126;-63
2022/08/07 04:18:47;;;;;;;11.57;8.40;;;;;;;;;;5103348;28;20048;-64
2022/08/07 04:21:14;;;;;;;10.80;7.88;;;;;;;;;;5102918;28;20072;-63
2022/08/07 04:23:42;;;;;;;9.65;7.75;;;;;;;;;;5107420;28;20061;-63
2022/08/07 04:26:09;;;;;;;11.00;7.88;;;;;;;;;;5106525;28;20055;-63
2022/08/07 04:28:36;;;;;;;13.20;8.88;;;;;;;;;;5104180;28;20083;-64
2022/08/07 04:31:05;;;;;;;15.80;8.70;;;;;;;;;;5103201;28;20052;-64
2022/08/07 04:33:32;;;;;;;13.95;8.45;;;;;;;;;;5108173;28;20047;-64
2022/08/07 04:35:59;;;;;;;12.95;8.20;;;;;;;;;;5102772;28;20548;-64
2022/08/07 04:38:27;;;;;;;12.23;8.25;;;;;;;;;;5085192;28;20059;-64
2022/08/07 04:40:54;;;;;;;10.00;8.07;;;;;;;;;;5103176;28;20056;-63
2022/08/07 04:43:23;;;;;;;12.95;8.10;;;;;;;;;;5106820;28;20100;-63
2022/08/07 04:45:53;;;;;;;13.00;8.80;;;;;;;;;;5085773;28;20063;-64
2022/08/07 04:48:26;;;;;;;10.77;8.43;;;;;;;;;;5105276;28;20052;-64
2022/08/07 04:50:57;;;;;;;11.13;7.70;;;;;;;;;;5098932;28;20048;-64
2022/08/07 04:53:28;;;;;;;10.48;7.35;;;;;;;;;;5097215;28;20630;-64
2022/08/07 04:55:58;;;;;;;12.15;8.32;;;;;;;;;;5096184;28;20050;-64
2022/08/07 04:58:31;;;;;;;11.70;8.07;;;;;;;;;;5102744;28;20044;-64
2022/08/07 05:00:58;;;;;;;;;;;;;;;;;;5085196;28;20060;-64
2022/08/07 05:03:29;;;;;;;11.23;7.60;;;;;;;;;;5098080;28;19919;-63
2022/08/07 05:06:01;;;;;;;10.68;8.20;;;;;;;;;;5085625;28;20055;-64
2022/08/07 05:08:34;;;;;;;10.23;7.38;;;;;;;;;;5103415;28;20073;-64
2022/08/07 05:11:05;;;;;;;11.57;7.45;;;;;;;;;;5105410;27;20084;-63
2022/08/07 05:13:35;;;;;;;11.98;7.07;;;;;;;;;;5100515;28;20048;-65
2022/08/07 05:16:04;;;;;;;10.73;7.68;;;;;;;;;;5103762;28;20057;-64
2022/08/07 05:18:34;;;;;;;12.13;7.35;;;;;;;;;;5102101;28;20399;-64
2022/08/07 05:21:03;;;;;;;9.10;7.00;;;;;;;;;;5101736;28;20739;-64
2022/08/07 05:23:33;;;;;;;9.57;6.88;;;;;;;;;;5079462;28;20052;-64
2022/08/07 05:26:01;;;;;;;8.50;6.65;;;;;;;;;;5104299;28;20440;-64
2022/08/07 05:28:29;;;;;;;11.43;6.35;;;;;;;;;;5100006;28;20055;-64
2022/08/07 05:30:57;;;;;;;9.60;6.75;;;;;;;;;;5099513;28;20047;-64
2022/08/07 05:33:24;;;;;;;8.38;6.47;;;;;;;;;;5078067;28;20058;-64
2022/08/07 05:35:53;;;;;;;8.70;6.53;;;;;;;;;;5101814;28;20054;-64
2022/08/07 05:38:22;;;;;;;10.52;6.45;;;;;;;;;;5099246;28;20394;-64
2022/08/07 05:40:49;;;;;;;9.38;6.55;;;;;;;;;;5082361;28;20055;-64
2022/08/07 05:43:17;;;;;;;10.55;6.80;;;;;;;;;;5094826;28;20048;-64
2022/08/07 05:45:44;;;;;;;9.23;6.30;;;;;;;;;;5086856;28;20055;-63
2022/08/07 05:48:11;;;;;;;8.45;6.00;;;;;;;;;;5094360;28;20543;-64
2022/08/07 05:50:39;;;;;;;9.23;6.00;;;;;;;;;;5099587;28;20040;-64
2022/08/07 05:53:08;;;;;;;8.48;5.70;;;;;;;;;;5100685;28;20047;-64
2022/08/07 05:55:36;;;;;;;9.98;5.85;;;;;;;;;;5097823;28;20103;-64
2022/08/07 05:58:04;;;;;;;6.57;5.65;;;;;;;;;;5099687;28;20058;-64
2022/08/07 06:00:32;;;;;;;9.43;6.10;;;;;;;;;;5103229;28;20043;-64
2022/08/07 06:03:00;;;;;;;7.97;6.18;;;;;;;;;;5100308;28;20055;-64
2022/08/07 06:05:30;;;;;;;7.40;5.93;;;;;;;;;;5100963;28;20134;-64
2022/08/07 06:07:59;;;;;;;8.07;5.78;;;;;;;;;;5104041;28;20126;-63
2022/08/07 06:10:27;;;;;;;8.95;6.00;;;;;;;;;;5102072;27;20545;-64
2022/08/07 06:12:55;;;;;;;8.73;5.95;;;;;;;;;;5101711;28;20058;-64
2022/08/07 06:15:23;;;;;;;8.93;6.30;;;;;;;;;;5099318;28;20052;-64
2022/08/07 06:17:50;;;;;;;8.98;5.65;;;;;;;;;;5104816;28;20051;-64
2022/08/07 06:20:17;;;;;;;9.73;5.80;;;;;;;;;;5098184;28;20044;-64
2022/08/07 06:22:45;;;;;;;6.63;5.43;;;;;;;;;;5105179;28;20043;-64
2022/08/07 06:25:12;;;;;;;8.00;5.35;;;;;;;;;;5106263;28;20043;-64
2022/08/07 06:27:41;;;;;;;7.38;5.60;;;;;;;;;;5105868;28;20043;-64
2022/08/07 06:30:09;;;;;;;8.23;5.13;;;;;;;;;;5106982;28;20697;-63
2022/08/07 06:32:36;;;;;;;7.78;5.72;;;;;;;;;;5101130;28;20518;-63
2022/08/07 06:35:04;;;;;;;6.43;5.18;;;;;;;;;;5101172;28;20052;-64
2022/08/07 06:37:31;;;;;;;5.32;4.28;;;;;;;;;;5083704;28;20050;-64
2022/08/07 06:39:58;;;;;;;6.40;4.40;;;;;;;;;;5097500;28;20510;-64
2022/08/07 06:42:28;;;;;;;5.60;3.92;;;;;;;;;;5100566;28;20040;-64
2022/08/07 06:44:58;;;;;;;6.88;4.35;;;;;;;;;;5104898;28;20510;-64
2022/08/07 06:47:25;;;;;;;5.18;4.30;;;;;;;;;;5100523;28;20709;-63
2022/08/07 06:49:52;;;;;;;7.72;4.38;;;;;;;;;;5083361;28;20147;-64
2022/08/07 06:52:21;;;;;;;6.32;4.35;;;;;;;;;;5102382;28;20494;-63
2022/08/07 06:54:50;;;;;;;5.78;4.05;;;;;;;;;;5104254;28;20059;-64
2022/08/07 06:57:18;;;;;;;6.10;3.95;;;;;;;;;;5105755;28;20058;-63
2022/08/07 06:59:46;;;;;;;7.20;4.00;;;;;;;;;;5083256;28;20572;-63
2022/08/07 07:02:18;;;;;;;5.55;4.22;;;;;;;;;;5101727;28;20043;-64
2022/08/07 07:04:46;;;;;;;5.95;4.38;;;;;;;;;;5100673;28;20051;-64
2022/08/07 07:07:13;;;;;;;7.57;3.63;;;;;;;;;;5103389;28;20058;-64
2022/08/07 07:09:45;;;;;;;6.63;4.18;;;;;;;;;;5103310;28;20047;-64
2022/08/07 07:12:19;;;;;;;5.60;4.32;;;;;;;;;;5103470;28;20040;-64
2022/08/07 07:14:50;;;;;;;6.55;4.03;;;;;;;;;;5092807;28;20043;-64
2022/08/07 07:17:23;;;;;;;6.03;3.63;;;;;;;;;;5100820;28;20513;-64
2022/08/07 07:19:53;;;;;;;7.32;4.10;;;;;;;;;;5101225;28;20749;-64
2022/08/07 07:22:21;;;;;;;6.07;4.20;;;;;;;;;;5102097;28;20047;-64
2022/08/07 07:24:49;;;;;;;7.47;3.28;;;;;;;;;;5096210;28;20048;-64
2022/08/07 07:27:17;;;;;;;9.07;4.07;;;;;;;;;;5101099;28;20109;-64
2022/08/07 07:29:48;;;;;;;6.80;3.00;;;;;;;;;;5099782;28;20044;-64
2022/08/07 07:32:16;;;;;;;4.70;3.00;;;;;;;;;;5101727;28;20047;-64
2022/08/07 07:34:46;;;;;;;4.72;3.20;;;;;;;;;;5100637;28;20047;-64
2022/08/07 07:37:15;;;;;;;4.47;3.20;;;;;;;;;;5104989;28;20726;-64
2022/08/07 07:39:42;;;;;;;5.10;3.28;;;;;;;;;;5103378;28;20102;-64
2022/08/07 07:42:11;;;;;;;5.38;3.50;;;;;;;;;;5098337;28;20047;-65
2022/08/07 07:44:40;;;;;;;5.97;3.30;;;;;;;;;;5094778;28;20044;-64
2022/08/07 07:47:07;;;;;;;4.63;3.42;;;;;;;;;;5098471;28;20585;-64
2022/08/07 07:49:36;;;;;;;7.80;3.58;;;;;;;;;;5102979;28;20047;-64
2022/08/07 07:52:05;;;;;;;4.45;2.83;;;;;;;;;;5105079;28;20057;-64
2022/08/07 07:54:33;;;;;;;3.65;2.78;;;;;;;;;;5102362;28;20043;-64
2022/08/07 07:57:01;;;;;;;6.40;3.20;;;;;;;;;;5103373;28;20062;-64
2022/08/07 07:59:29;;;;;;;5.05;3.10;;;;;;;;;;5098929;28;20052;-64
2022/08/07 08:01:57;;;;;;;5.57;2.90;;;;;;;;;;5105424;28;20044;-64
2022/08/07 08:04:26;;;;;;;6.53;3.28;;;;;;;;;;5101113;28;20697;-64
2022/08/07 08:06:54;;;;;;;5.70;2.97;;;;;;;;;;5100135;28;20093;-65
2022/08/07 08:09:24;;;;;;;4.40;2.47;;;;;;;;;;5104668;28;20062;-65
2022/08/07 08:11:52;;;;;;;6.88;2.95;;;;;;;;;;5085131;28;20056;-64
2022/08/07 08:14:19;;;;;;;8.43;3.22;;;;;;;;;;5085347;28;20059;-64
2022/08/07 08:16:47;;;;;;;7.43;3.38;;;;;;;;;;5082945;28;20428;-64
2022/08/07 08:19:16;;;;;;;8.02;3.67;;;;;;;;;;5086402;28;20059;-64
2022/08/07 08:27:23;;;;;;;5.45;3.15;;;;;;;;;;5101629;28;20055;-64
2022/08/07 08:29:52;;;;;;;7.97;3.20;;;;;;;;;;5082041;28;20517;-64
2022/08/07 08:32:21;;;;;;;6.53;3.20;;;;;;;;;;5103852;28;20058;-64
2022/08/07 08:34:49;;;;;;;6.53;3.67;;;;;;;;;;5084283;28;20502;-64
2022/08/07 08:37:17;;;;;;;8.60;3.40;;;;;;;;;;5102068;28;20398;-64
2022/08/07 08:39:47;;;;;;;6.28;3.28;;;;;;;;;;5101868;28;20055;-64
2022/08/07 08:42:18;;;;;;;5.43;2.90;;;;;;;;;;5104300;28;20497;-64
2022/08/07 08:44:49;;;;;;;8.65;2.90;;;;;;;;;;5095320;28;20047;-64
2022/08/07 08:47:22;;;;;;;7.50;3.10;;;;;;;;;;5103221;28;20040;-64
2022/08/07 08:49:54;;;;;;;8.00;2.88;;;;;;;;;;5104310;28;20510;-64
2022/08/07 08:52:24;;;;;;;6.63;3.08;;;;;;;;;;5101413;28;20771;-64
2022/08/07 08:54:57;;;;;;;4.80;2.75;;;;;;;;;;5104076;28;20096;-64
2022/08/07 08:57:27;;;;;;;6.50;2.83;;;;;;;;;;5103331;28;20097;-64
2022/08/07 09:00:00;;;;;;;5.80;2.53;;;;;;;;;;5103501;28;20458;-64
2022/08/07 09:02:32;;;;;;;5.55;2.65;;;;;;;;;;5104695;28;20047;-64
2022/08/07 09:05:03;;;;;;;4.60;2.67;;;;;;;;;;5106395;28;20062;-64
2022/08/07 09:07:33;;;;;;;4.43;3.00;;;;;;;;;;5107379;28;20787;-64
2022/08/07 09:10:06;;;;;;;4.70;3.13;;;;;;;;;;5087477;28;20051;-64
2022/08/07 09:12:40;;;;;;;5.88;2.85;;;;;;;;;;5100944;28;20055;-64
2022/08/07 09:15:15;;;;;;;6.63;2.63;;;;;;;;;;5101708;28;20043;-64
2022/08/07 09:17:47;;;;;;;4.85;2.70;;;;;;;;;;5106171;28;20742;-64
2022/08/07 09:20:23;;;;;;;5.05;2.83;;;;;;;;;;5105652;28;20050;-65
2022/08/07 09:22:54;;;;;;;4.25;2.20;;;;;;;;;;5079440;28;20469;-64
2022/08/07 09:25:25;;;;;;;4.65;2.58;;;;;;;;;;5085021;28;20056;-64
2022/08/07 09:27:57;;;;;;;4.53;2.22;;;;;;;;;;5088756;28;20051;-65
2022/08/07 09:30:27;;;;;;;4.25;2.15;;;;;;;;;;5106562;28;20081;-64
2022/08/07 09:33:03;;;;;;;5.78;2.55;;;;;;;;;;5105526;28;20043;-64
2022/08/07 09:35:36;;;;;;;4.55;2.58;;;;;;;;;;5107834;28;20054;-64
2022/08/07 09:38:10;;;;;;;5.95;2.17;;;;;;;;;;5100864;28;21056;-64
2022/08/07 09:40:47;;;;;;;6.03;2.17;;;;;;;;;;5088184;28;20126;-65
2022/08/07 09:43:20;;;;;;;4.07;2.22;;;;;;;;;;5087269;28;20196;-64
2022/08/07 09:45:53;;;;;;;4.93;2.13;;;;;;;;;;5103169;28;20061;-64
2022/08/07 09:48:25;;;;;;;8.18;1.95;;;;;;;;;;5104046;28;20043;-64
2022/08/07 09:50:56;;;;;;;6.57;2.25;;;;;;;;;;5102084;28;20532;-64
2022/08/07 09:53:26;;;;;;;5.40;2.10;;;;;;;;;;5106000;28;20039;-64
2022/08/07 09:56:04;;;;;;;4.90;2.40;;;;;;;;;;5103061;28;20047;-64
2022/08/07 09:58:53;;;;;;;3.80;1.70;;;;;;;;;;5103999;28;20071;-64
2022/08/07 10:01:33;;;;;;;8.43;2.10;;;;;;;;;;5106615;28;20055;-64
2022/08/07 10:04:10;;;;;;;3.65;1.90;;;;;;;;;;5105654;28;20056;-64
2022/08/07 10:06:52;;;;;;;6.45;2.17;;;;;;;;;;5089432;28;20379;-64
2022/08/07 10:09:30;;;;;;;5.90;2.17;;;;;;;;;;5102498;28;20055;-64
2022/08/07 10:12:09;;;;;;;5.55;1.95;;;;;;;;;;5082036;28;20054;-65
2022/08/07 10:14:51;;;;;;;4.75;1.80;;;;;;;;;;5086705;28;20125;-64
2022/08/07 10:17:29;;;;;;;5.65;1.60;;;;;;;;;;5065692;28;20052;-65
2022/08/07 10:20:04;;;;;;;3.58;1.67;;;;;;;;;;5103418;28;20052;-64
2022/08/07 10:22:37;;;;;;;4.28;1.70;;;;;;;;;;5103705;28;20113;-65
2022/08/07 10:25:09;;;;;;;4.50;1.88;;;;;;;;;;5103624;28;20062;-64
2022/08/07 10:27:46;;;;;;;4.38;1.70;;;;;;;;;;5103815;28;20051;-64
2022/08/07 10:30:16;;;;;;;5.18;1.75;;;;;;;;;;5100942;28;20116;-64
2022/08/07 10:33:07;;;;;;;3.47;1.50;;;;;;;;;;5102788;28;20052;-64
2022/08/07 10:35:44;;;;;;;4.90;1.38;;;;;;;;;;5080075;28;20662;-64
2022/08/07 10:38:15;;;;;;;5.25;1.20;;;;;;;;;;5105874;28;20092;-64
2022/08/07 10:40:45;;;;;;;4.82;1.17;;;;;;;;;;5099771;28;20051;-65
2022/08/07 10:43:16;;;;;;;3.28;1.33;;;;;;;;;;5105905;28;20093;-64
2022/08/07 10:45:45;;;;;;;4.28;1.10;;;;;;;;;;5086193;28;20043;-65
2022/08/07 10:48:17;;;;;;;2.78;1.17;;;;;;;;;;5083887;28;20550;-64
2022/08/07 10:50:46;;;;;;;2.55;0.90;;;;;;;;;;5100114;28;20690;-64
2022/08/07 10:53:17;;;;;;;1.67;1.10;;;;;;;;;;5104123;28;20491;-64
2022/08/07 10:55:49;;;;;;;3.70;1.35;;;;;;;;;;5103421;28;20043;-65
2022/08/07 10:58:21;;;;;;;2.55;1.15;;;;;;;;;;5104381;28;20058;-64
2022/08/07 11:00:53;;;;;;;3.17;1.15;;;;;;;;;;5100515;28;20040;-64
2022/08/07 11:03:24;;;;;;;3.83;1.20;;;;;;;;;;5099315;28;20088;-64
2022/08/07 11:05:55;;;;;;;2.97;1.20;;;;;;;;;;5102595;28;20127;-65
2022/08/07 11:08:27;;;;;;;3.88;1.10;;;;;;;;;;5104034;28;20553;-64
2022/08/07 11:10:58;;;;;;;3.08;1.13;;;;;;;;;;5106264;27;20051;-64
2022/08/07 11:13:32;;;;;;;2.80;1.20;;;;;;;;;;5104461;28;20072;-65
2022/08/07 11:16:03;;;;;;;3.15;1.05;;;;;;;;;;5103778;28;20895;-64
2022/08/07 11:18:34;;;;;;;2.00;1.02;;;;;;;;;;5100868;28;20066;-64
2022/08/07 11:21:05;;;;;;;3.75;1.15;;;;;;;;;;5106172;28;20047;-65
2022/08/07 11:23:36;;;;;;;2.20;1.00;;;;;;;;;;5099195;28;20043;-65
2022/08/07 11:26:09;;;;;;;3.08;1.10;;;;;;;;;;5104493;28;20086;-64
2022/08/07 11:28:43;;;;;;;3.08;1.15;;;;;;;;;;5101157;28;20047;-65
2022/08/07 11:31:13;;;;;;;2.70;1.23;;;;;;;;;;5082990;28;20064;-65
2022/08/07 11:33:45;;;;;;;2.90;1.20;;;;;;;;;;5099688;28;20043;-65
2022/08/07 11:36:17;;;;;;;2.45;0.93;;;;;;;;;;5087089;28;20486;-65
2022/08/07 11:38:50;;;;;;;2.38;1.10;;;;;;;;;;5083391;28;20402;-65
2022/08/07 11:41:19;;;;;;;2.80;1.20;;;;;;;;;;5084037;28;20058;-65
2022/08/07 11:43:53;;;;;;;4.28;1.23;;;;;;;;;;5102747;28;20093;-65
2022/08/07 11:46:31;;;;;;;2.78;1.20;;;;;;;;;;5100706;28;20055;-65
2022/08/07 11:49:03;;;;;;;3.38;1.23;;;;;;;;;;5080837;28;20048;-65
2022/08/07 11:51:36;;;;;;;2.40;1.30;;;;;;;;;;5102230;28;20043;-65
2022/08/07 11:54:13;;;;;;;2.85;1.30;;;;;;;;;;5098395;28;20040;-65
2022/08/07 11:56:46;;;;;;;3.55;1.10;;;;;;;;;;5103296;28;20059;-65
2022/08/07 11:59:25;;;;;;;2.55;1.20;;;;;;;;;;5104373;28;20066;-65
2022/08/07 12:01:57;;;;;;;3.90;1.50;;;;;;;;;;5101736;28;20050;-64
2022/08/07 12:04:34;;;;;;;2.03;1.40;;;;;;;;;;5101520;28;20051;-65
2022/08/07 12:07:02;;;;;;;3.25;2.00;;;;;;;;;;5104430;28;20456;-64
2022/08/07 12:09:36;;;;;;;3.90;1.58;;;;;;;;;;5104768;28;20050;-64
2022/08/07 12:12:06;;;;;;;2.47;1.50;;;;;;;;;;5097816;28;20778;-65
2022/08/07 12:14:39;;;;;;;4.45;1.60;;;;;;;;;;5101318;28;20551;-64
2022/08/07 12:17:06;;;;;;;;;;;;;;;;;;5105347;28;20584;-65
2022/08/07 12:19:37;;;;;;;3.28;1.58;;;;;;;;;;5101262;28;19920;-65
2022/08/07 12:22:07;;;;;;;4.55;1.75;;;;;;;;;;5097752;28;20059;-65
2022/08/07 12:24:38;;;;;;;8.50;1.90;;;;;;;;;;5104374;28;20493;-65
2022/08/07 12:27:10;;;;;;;4.15;1.83;;;;;;;;;;5101661;28;20058;-65
2022/08/07 12:29:43;;;;;;;4.22;2.10;;;;;;;;;;5096142;28;20572;-65
2022/08/07 12:32:10;;;;;;;;;;;;;;;;;;5102880;28;20047;-64
2022/08/07 12:34:39;;;;;;;3.38;1.83;;;;;;;;;;5101797;28;19968;-65
2022/08/07 12:37:07;;;;;;;5.05;1.73;;;;;;;;;;5103415;28;20059;-65
2022/08/07 12:39:36;;;;;;;5.78;1.88;;;;;;;;;;5104220;28;20384;-65
2022/08/07 12:42:03;;;;;;;3.13;1.63;;;;;;;;;;5107463;28;20047;-65
2022/08/07 12:44:31;;;;;;;4.32;2.20;;;;;;;;;;5103897;28;20047;-65
2022/08/07 12:47:09;;;;;;;4.38;1.60;;;;;;;;;;5107003;28;20119;-65
2022/08/07 12:49:40;;;;;;;6.20;2.00;;;;;;;;;;5105909;28;20497;-65
2022/08/07 12:52:12;;;;;;;4.88;2.13;;;;;;;;;;5106397;28;20044;-65
2022/08/07 12:54:41;;;;;;;4.93;2.20;;;;;;;;;;5105424;28;20768;-65
2022/08/07 12:57:10;;;;;;;3.83;1.70;;;;;;;;;;5101773;28;20491;-65
2022/08/07 12:59:37;;;;;;;2.83;1.95;;;;;;;;;;5100202;28;20520;-64
2022/08/07 13:02:12;;;;;;;6.50;2.10;;;;;;;;;;5107789;28;20052;-64
2022/08/07 13:04:45;;;;;;;6.80;2.25;;;;;;;;;;5106160;28;20042;-64
2022/08/07 13:07:21;;;;;;;4.43;2.15;;;;;;;;;;5088935;28;20119;-65
2022/08/07 13:10:01;;;;;;;4.45;1.70;;;;;;;;;;5089952;27;20100;-65
2022/08/07 13:12:32;;;;;;;5.53;1.80;;;;;;;;;;5108299;28;20406;-65
2022/08/07 13:15:01;;;;;;;5.53;1.63;;;;;;;;;;5103271;28;20109;-65
2022/08/07 13:17:32;;;;;;;3.88;1.63;;;;;;;;;;5104329;28;20471;-64
2022/08/07 13:20:03;;;;;;;7.57;1.80;;;;;;;;;;5104471;28;20055;-64
2022/08/07 13:22:33;;;;;;;6.00;1.50;;;;;;;;;;5089541;28;20054;-65
2022/08/07 13:25:02;;;;;;;3.47;1.70;;;;;;;;;;5104677;28;20108;-65
2022/08/07 13:27:32;;;;;;;4.80;1.40;;;;;;;;;;5106658;28;20054;-66
2022/08/07 13:30:02;;;;;;;2.95;1.40;;;;;;;;;;5082982;28;20063;-66
2022/08/07 13:32:33;;;;;;;3.80;1.63;;;;;;;;;;5108509;28;20043;-65
2022/08/07 13:35:02;;;;;;;7.13;2.10;;;;;;;;;;5106202;28;20048;-65
2022/08/07 13:37:32;;;;;;;5.20;1.92;;;;;;;;;;5105656;28;20059;-65
2022/08/07 13:40:14;;;;;;;5.82;2.03;;;;;;;;;;5103333;28;20060;-65
2022/08/07 13:42:41;;;;;;;;;;;;;;;;;;5104975;28;20631;-65
2022/08/07 13:45:10;;;;;;;3.38;1.80;;;;;;;;;;5101588;28;19973;-65
2022/08/07 13:47:39;;;;;;;5.13;2.38;;;;;;;;;;5106456;28;20075;-66
2022/08/07 13:50:08;;;;;;;5.72;2.22;;;;;;;;;;5083847;28;20059;-65
2022/08/07 13:52:39;;;;;;;5.07;2.10;;;;;;;;;;5083487;28;20040;-66
2022/08/07 13:55:09;;;;;;;5.32;2.35;;;;;;;;;;5103276;28;20363;-65
2022/08/07 13:57:39;;;;;;;4.43;2.40;;;;;;;;;;5099456;28;20092;-65
2022/08/07 14:00:08;;;;;;;6.80;2.30;;;;;;;;;;5106253;28;20047;-65
2022/08/07 14:02:36;;;;;;;4.30;2.22;;;;;;;;;;5099663;28;20063;-66
2022/08/07 14:05:05;;;;;;;6.60;2.55;;;;;;;;;;5104076;28;20048;-66
2022/08/07 14:07:37;;;;;;;5.13;2.40;;;;;;;;;;5106574;28;20048;-65
2022/08/07 14:10:05;;;;;;;4.35;2.22;;;;;;;;;;5101319;28;20063;-66
2022/08/07 14:12:39;;;;;;;5.30;2.65;;;;;;;;;;5084680;28;20112;-65
2022/08/07 14:15:09;;;;;;;5.30;2.28;;;;;;;;;;5105705;28;20044;-65
2022/08/07 14:17:38;;;;;;;5.30;2.30;;;;;;;;;;5082295;28;20106;-65
2022/08/07 14:20:09;;;;;;;5.07;2.42;;;;;;;;;;5104271;28;20105;-65
2022/08/07 14:22:37;;;;;;;4.03;2.40;;;;;;;;;;5103271;28;20047;-66
2022/08/07 14:25:08;;;;;;;6.47;2.42;;;;;;;;;;5103747;28;20055;-65
2022/08/07 14:27:37;;;;;;;7.90;2.70;;;;;;;;;;5106843;28;20399;-65
2022/08/07 14:30:05;;;;;;;4.57;2.28;;;;;;;;;;5104035;28;20063;-66
2022/08/07 14:32:38;;;;;;;9.13;2.63;;;;;;;;;;5102820;28;20048;-65
2022/08/07 14:35:07;;;;;;;4.90;3.03;;;;;;;;;;5084861;28;20043;-65
2022/08/07 14:37:35;;;;;;;7.60;2.70;;;;;;;;;;5106557;28;20085;-65
2022/08/07 14:40:03;;;;;;;6.65;2.80;;;;;;;;;;5102721;28;20051;-65
2022/08/07 14:42:34;;;;;;;5.60;2.70;;;;;;;;;;5085869;28;20141;-65
2022/08/07 14:45:03;;;;;;;10.00;2.70;;;;;;;;;;5105132;28;20051;-65
2022/08/07 14:47:32;;;;;;;5.85;2.65;;;;;;;;;;5104799;28;20047;-65
2022/08/07 14:49:59;;;;;;;6.70;2.50;;;;;;;;;;5084934;28;20102;-65
2022/08/07 14:52:32;;;;;;;6.30;2.65;;;;;;;;;;5104812;28;20051;-65
2022/08/07 14:55:01;;;;;;;6.25;2.42;;;;;;;;;;5102823;28;20090;-65
2022/08/07 14:57:29;;;;;;;6.88;2.30;;;;;;;;;;5085751;28;20053;-65
2022/08/07 14:59:57;;;;;;;4.82;2.17;;;;;;;;;;5103365;28;20062;-65
2022/08/07 15:02:25;;;;;;;8.45;2.80;;;;;;;;;;5105153;28;20128;-65
2022/08/07 15:04:52;;;;;;;4.45;2.30;;;;;;;;;;5102043;28;20044;-65